Time;durP1;ratioP1;P1;durP2;ratioP2;P2;SDS_P1;SDS_P2;PMS_P1;PMS_P2;Temp;Humidity;BMP_temperature;BMP_pressure;BME280_temperature;BME280_humidity;BME280_pressure;Samples;Min_cycle;Max_cycle;Signal;HPM_P1;HPM_P2
2024/01/12 00:00:28;;;;;;;;;;;-3.20;99.90;;;;;;5098409;28;19927;-76
2024/01/12 00:02:55;;;;;;;;;;;-3.20;99.90;;;;;;5099700;28;19939;-76
2024/01/12 00:05:22;;;;;;;;;;;-3.30;99.90;;;;;;5094997;28;19928;-76
2024/01/12 00:07:48;;;;;;;;;;;-3.30;99.90;;;;;;5098168;28;19934;-76
2024/01/12 00:10:15;;;;;;;;;;;-3.30;99.90;;;;;;5097572;28;19927;-77
2024/01/12 00:12:43;;;;;;;;;;;-3.30;99.90;;;;;;5095714;28;19932;-77
2024/01/12 00:15:10;;;;;;;;;;;-3.30;99.90;;;;;;5099818;28;20499;-77
2024/01/12 00:17:36;;;;;;;;;;;-3.30;99.90;;;;;;5101639;28;19931;-76
2024/01/12 00:20:04;;;;;;;;;;;-3.30;99.90;;;;;;5102333;28;19928;-76
2024/01/12 00:22:31;;;;;;;;;;;-3.30;99.90;;;;;;5098857;27;19928;-76
2024/01/12 00:24:58;;;;;;;;;;;-3.30;99.90;;;;;;5100148;28;20413;-76
2024/01/12 00:27:24;;;;;;;;;;;-3.30;99.90;;;;;;5097155;27;19939;-77
2024/01/12 00:29:52;;;;;;;;;;;-3.30;99.90;;;;;;5080875;28;20402;-76
2024/01/12 00:32:19;;;;;;;;;;;-3.30;99.90;;;;;;5102223;28;20350;-76
2024/01/12 00:34:45;;;;;;;;;;;-3.40;99.90;;;;;;5101530;28;19932;-76
2024/01/12 00:37:12;;;;;;;;;;;-3.40;99.90;;;;;;5099056;28;19923;-76
2024/01/12 00:39:39;;;;;;;;;;;-3.40;99.90;;;;;;5102104;28;19936;-76
2024/01/12 00:42:05;;;;;;;;;;;-3.40;99.90;;;;;;5097319;28;19936;-75
2024/01/12 00:44:32;;;;;;;;;;;-3.40;99.90;;;;;;5100408;28;19959;-76
2024/01/12 00:47:00;;;;;;;;;;;-3.40;99.90;;;;;;5099358;28;19945;-76
2024/01/12 00:49:26;;;;;;;;;;;-3.40;99.90;;;;;;5101180;27;19939;-76
2024/01/12 00:51:53;;;;;;;;;;;-3.40;99.90;;;;;;5094969;28;19932;-76
2024/01/12 00:54:26;;;;;;;;;;;-3.40;99.90;;;;;;5096452;28;19932;-76
2024/01/12 00:56:53;;;;;;;;;;;-3.40;99.90;;;;;;5100109;28;19946;-76
2024/01/12 00:59:20;;;;;;;;;;;-3.40;99.90;;;;;;5100022;28;20407;-75
2024/01/12 01:01:46;;;;;;;;;;;-3.50;99.90;;;;;;5100064;28;20027;-76
2024/01/12 01:04:14;;;;;;;;;;;-3.50;99.90;;;;;;5099876;28;19934;-76
2024/01/12 01:06:41;;;;;;;;;;;-3.50;99.90;;;;;;5085217;28;19966;-76
2024/01/12 01:09:08;;;;;;;;;;;-3.50;99.90;;;;;;5102619;28;19935;-76
2024/01/12 01:11:35;;;;;;;;;;;-3.50;99.90;;;;;;5101845;28;20324;-76
2024/01/12 01:14:02;;;;;;;;;;;-3.50;99.90;;;;;;5093996;28;19928;-76
2024/01/12 01:16:28;;;;;;;;;;;-3.50;99.90;;;;;;5097453;28;19927;-76
2024/01/12 01:18:55;;;;;;;;;;;-3.50;99.90;;;;;;5100229;28;19928;-76
2024/01/12 01:21:23;;;;;;;;;;;-3.50;99.90;;;;;;5102063;28;19942;-76
2024/01/12 01:23:49;;;;;;;;;;;-3.50;99.90;;;;;;5097079;28;19928;-76
2024/01/12 01:26:16;;;;;;;;;;;-3.50;99.90;;;;;;5097755;28;19934;-76
2024/01/12 01:28:43;;;;;;;;;;;-3.50;99.90;;;;;;5098521;28;19935;-76
2024/01/12 01:31:09;;;;;;;;;;;-3.50;99.90;;;;;;5099275;28;19932;-76
2024/01/12 01:33:36;;;;;;;;;;;-3.50;99.90;;;;;;5080658;28;19938;-76
2024/01/12 01:36:03;;;;;;;;;;;-3.50;99.90;;;;;;5097280;28;19989;-76
2024/01/12 01:38:31;;;;;;;;;;;-3.60;99.90;;;;;;5096598;28;19928;-76
2024/01/12 01:40:57;;;;;;;;;;;-3.50;99.90;;;;;;5100035;28;19928;-76
2024/01/12 01:43:26;;;;;;;;;;;-3.60;99.90;;;;;;5099949;28;19932;-76
2024/01/12 01:45:52;;;;;;;;;;;-3.60;99.90;;;;;;5101218;28;19928;-76
2024/01/12 01:48:19;;;;;;;;;;;-3.60;99.90;;;;;;5101468;28;19945;-75
2024/01/12 01:50:47;;;;;;;;;;;-3.60;99.90;;;;;;5099568;27;19932;-75
2024/01/12 01:53:13;;;;;;;;;;;-3.60;99.90;;;;;;5099115;28;19932;-76
2024/01/12 01:55:42;;;;;;;;;;;-3.60;99.90;;;;;;5101902;27;19931;-76
2024/01/12 01:58:09;;;;;;;;;;;-3.60;99.90;;;;;;5101907;27;19931;-76
2024/01/12 02:00:36;;;;;;;;;;;-3.60;99.90;;;;;;5103338;27;19927;-76
2024/01/12 02:03:02;;;;;;;;;;;-3.60;99.90;;;;;;5105567;27;19928;-76
2024/01/12 02:05:29;;;;;;;;;;;-3.60;99.90;;;;;;5098879;28;19932;-76
2024/01/12 02:07:56;;;;;;;;;;;-3.70;99.90;;;;;;5104419;27;19931;-76
2024/01/12 02:10:23;;;;;;;;;;;-3.70;99.90;;;;;;5104942;28;20639;-76
2024/01/12 02:12:51;;;;;;;;;;;-3.70;99.90;;;;;;5105363;27;19932;-76
2024/01/12 02:15:18;;;;;;;;;;;-3.70;99.90;;;;;;5102155;28;19927;-75
2024/01/12 02:17:45;;;;;;;;;;;-3.70;99.90;;;;;;5102398;27;19927;-76
2024/01/12 02:20:12;;;;;;;;;;;-3.70;99.90;;;;;;5102238;28;19927;-75
2024/01/12 02:22:40;;;;;;;;;;;-3.70;99.90;;;;;;5100917;28;19935;-75
2024/01/12 02:25:07;;;;;;;;;;;-3.70;99.90;;;;;;5103167;28;19932;-75
2024/01/12 02:27:33;;;;;;;;;;;-3.70;99.90;;;;;;5100291;28;19951;-76
2024/01/12 02:30:00;;;;;;;;;;;-3.70;99.90;;;;;;5103574;27;20157;-76
2024/01/12 02:32:26;;;;;;;;;;;-3.70;99.90;;;;;;5102132;28;19928;-76
2024/01/12 02:34:53;;;;;;;;;;;-3.70;99.90;;;;;;5099471;28;19927;-76
2024/01/12 02:37:19;;;;;;;;;;;-3.80;99.90;;;;;;5101972;28;19937;-76
2024/01/12 02:39:47;;;;;;;;;;;-3.80;99.90;;;;;;5102787;28;19939;-76
2024/01/12 02:42:14;;;;;;;;;;;-3.80;99.90;;;;;;5101944;28;19969;-76
2024/01/12 02:44:41;;;;;;;;;;;-3.80;99.90;;;;;;5084091;28;20022;-76
2024/01/12 02:47:08;;;;;;;;;;;-3.80;99.90;;;;;;5098292;27;19928;-76
2024/01/12 02:49:34;;;;;;;;;;;-3.80;99.90;;;;;;5101946;27;19928;-76
2024/01/12 02:52:01;;;;;;;;;;;-3.80;99.90;;;;;;5103113;28;20185;-76
2024/01/12 02:54:28;;;;;;;;;;;-3.80;99.90;;;;;;5093138;28;19942;-74
2024/01/12 02:56:56;;;;;;;;;;;-3.80;99.90;;;;;;5097592;27;19979;-76
2024/01/12 02:59:23;;;;;;;;;;;-3.80;99.90;;;;;;5094915;28;20053;-75
2024/01/12 03:01:49;;;;;;;;;;;-3.80;99.90;;;;;;5077919;28;20347;-76
2024/01/12 03:04:16;;;;;;;;;;;-3.80;99.90;;;;;;5099155;27;19932;-76
2024/01/12 03:06:42;;;;;;;;;;;-3.90;99.90;;;;;;5098308;27;19927;-76
2024/01/12 03:09:10;;;;;;;;;;;-3.80;99.90;;;;;;5096573;28;19932;-76
2024/01/12 03:11:36;;;;;;;;;;;-3.90;99.90;;;;;;5097947;28;19985;-76
2024/01/12 03:14:04;;;;;;;;;;;-3.90;99.90;;;;;;5097032;28;19932;-75
2024/01/12 03:16:31;;;;;;;;;;;-3.90;99.90;;;;;;5099391;28;19944;-76
2024/01/12 03:18:57;;;;;;;;;;;-3.90;99.90;;;;;;5098883;28;19931;-76
2024/01/12 03:21:24;;;;;;;;;;;-3.90;99.90;;;;;;5097132;28;19928;-75
2024/01/12 03:23:50;;;;;;;;;;;-3.90;99.90;;;;;;5099007;27;19932;-76
2024/01/12 03:26:17;;;;;;;;;;;-3.90;99.90;;;;;;5100536;27;19931;-76
2024/01/12 03:28:43;;;;;;;;;;;-3.90;99.90;;;;;;5101043;28;20434;-76
2024/01/12 03:31:11;;;;;;;;;;;-3.90;99.90;;;;;;5097510;28;19936;-75
2024/01/12 03:33:38;;;;;;;;;;;-3.90;99.90;;;;;;5094701;28;20597;-75
2024/01/12 03:36:06;;;;;;;;;;;-3.90;99.90;;;;;;5087221;27;19973;-75
2024/01/12 03:38:33;;;;;;;;;;;-3.90;99.90;;;;;;5083975;28;19938;-76
2024/01/12 03:41:00;;;;;;;;;;;-4.00;99.90;;;;;;5097958;28;19928;-76
2024/01/12 03:43:26;;;;;;;;;;;-4.00;99.90;;;;;;5098930;28;19938;-75
2024/01/12 03:45:53;;;;;;;;;;;-4.00;99.90;;;;;;5097609;28;19938;-75
2024/01/12 03:48:21;;;;;;;;;;;-4.00;99.90;;;;;;5092567;28;20575;-76
2024/01/12 03:50:47;;;;;;;;;;;-4.00;99.90;;;;;;5100764;28;19928;-76
2024/01/12 03:53:15;;;;;;;;;;;-4.00;99.90;;;;;;5099350;28;19927;-76
2024/01/12 03:55:41;;;;;;;;;;;-4.00;99.90;;;;;;5100344;27;19938;-76
2024/01/12 03:58:08;;;;;;;;;;;-4.00;99.90;;;;;;5100491;27;19927;-75
2024/01/12 04:00:34;;;;;;;;;;;-4.00;99.90;;;;;;5098883;28;19928;-75
2024/01/12 04:03:01;;;;;;;;;;;-4.10;99.90;;;;;;5097776;27;19932;-75
2024/01/12 04:05:29;;;;;;;;;;;-4.00;99.90;;;;;;5100776;28;20257;-75
2024/01/12 04:07:56;;;;;;;;;;;-4.00;99.90;;;;;;5095941;28;19932;-76
2024/01/12 04:10:22;;;;;;;;;;;-4.10;99.90;;;;;;5096743;28;19928;-76
2024/01/12 04:12:49;;;;;;;;;;;-4.00;99.90;;;;;;5098623;28;19981;-76
2024/01/12 04:15:16;;;;;;;;;;;-4.10;99.90;;;;;;5098450;28;20517;-76
2024/01/12 04:17:42;;;;;;;;;;;-4.10;99.90;;;;;;5097627;28;19930;-76
2024/01/12 04:20:10;;;;;;;;;;;-4.10;99.90;;;;;;5099144;28;19935;-76
2024/01/12 04:22:38;;;;;;;;;;;-4.10;99.90;;;;;;5096820;28;20048;-74
2024/01/12 04:25:05;;;;;;;;;;;-4.10;99.90;;;;;;5097977;27;19932;-75
2024/01/12 04:27:32;;;;;;;;;;;-4.10;99.90;;;;;;5100815;28;19935;-76
2024/01/12 04:29:58;;;;;;;;;;;-4.10;99.90;;;;;;5099775;28;19928;-76
2024/01/12 04:32:26;;;;;;;;;;;-4.10;99.90;;;;;;5098351;28;19928;-75
2024/01/12 04:34:52;;;;;;;;;;;-4.20;99.90;;;;;;5096237;28;19935;-75
2024/01/12 04:37:19;;;;;;;;;;;-4.20;99.90;;;;;;5098591;27;19953;-75
2024/01/12 04:39:47;;;;;;;;;;;-4.20;99.90;;;;;;5099558;28;19939;-75
2024/01/12 04:42:14;;;;;;;;;;;-4.20;99.90;;;;;;5092923;28;19938;-75
2024/01/12 04:44:42;;;;;;;;;;;-4.20;99.90;;;;;;5096587;28;19938;-76
2024/01/12 04:47:08;;;;;;;;;;;-4.20;99.90;;;;;;5094373;28;19932;-75
2024/01/12 04:49:35;;;;;;;;;;;-4.20;99.90;;;;;;5100050;28;19938;-74
2024/01/12 04:52:02;;;;;;;;;;;-4.20;99.90;;;;;;5095657;28;19932;-75
2024/01/12 04:54:29;;;;;;;;;;;-4.20;99.90;;;;;;5097727;28;20301;-75
2024/01/12 04:56:57;;;;;;;;;;;-4.20;99.90;;;;;;5100292;28;19931;-76
2024/01/12 04:59:24;;;;;;;;;;;-4.20;99.90;;;;;;5098781;28;20034;-76
2024/01/12 05:01:50;;;;;;;;;;;-4.20;99.90;;;;;;5098963;28;19927;-76
2024/01/12 05:04:19;;;;;;;;;;;-4.20;99.90;;;;;;5100528;28;19927;-75
2024/01/12 05:06:45;;;;;;;;;;;-4.30;99.90;;;;;;5096775;28;19955;-76
2024/01/12 05:09:12;;;;;;;;;;;-4.30;99.90;;;;;;5096480;28;19932;-75
2024/01/12 05:11:38;;;;;;;;;;;-4.30;99.90;;;;;;5097582;27;19932;-75
2024/01/12 05:14:06;;;;;;;;;;;-4.30;99.90;;;;;;5104900;27;19928;-74
2024/01/12 05:16:33;;;;;;;;;;;-4.30;99.90;;;;;;5103567;27;20011;-75
2024/01/12 05:19:00;;;;;;;;;;;-4.30;99.90;;;;;;5100716;28;19927;-75
2024/01/12 05:21:26;;;;;;;;;;;-4.30;99.90;;;;;;5105428;28;19932;-75
2024/01/12 05:23:53;;;;;;;;;;;-4.30;99.90;;;;;;5102684;28;19924;-75
2024/01/12 05:26:19;;;;;;;;;;;-4.30;99.90;;;;;;5102894;28;19935;-75
2024/01/12 05:28:46;;;;;;;;;;;-4.40;99.90;;;;;;5104345;28;19936;-75
2024/01/12 05:31:15;;;;;;;;;;;-4.40;99.90;;;;;;5100296;28;19936;-75
2024/01/12 05:33:42;;;;;;;;;;;-4.40;99.90;;;;;;5103382;28;19932;-75
2024/01/12 05:36:08;;;;;;;;;;;-4.40;99.90;;;;;;5104536;28;19923;-74
2024/01/12 05:38:35;;;;;;;;;;;-4.40;99.90;;;;;;5100723;28;20367;-74
2024/01/12 05:41:01;;;;;;;;;;;-4.40;99.90;;;;;;5102068;28;19991;-75
2024/01/12 05:43:28;;;;;;;;;;;-4.40;99.90;;;;;;5095842;28;19931;-74
2024/01/12 05:45:55;;;;;;;;;;;-4.40;99.90;;;;;;5098419;28;19932;-75
2024/01/12 05:48:22;;;;;;;;;;;-4.40;99.90;;;;;;5098318;28;19927;-75
2024/01/12 05:50:49;;;;;;;;;;;-4.40;99.90;;;;;;5103026;28;20332;-75
2024/01/12 05:53:16;;;;;;;;;;;-4.40;99.90;;;;;;5092493;28;19932;-74
2024/01/12 05:55:43;;;;;;;;;;;-4.40;99.90;;;;;;5103389;28;20426;-75
2024/01/12 05:58:10;;;;;;;;;;;-4.50;99.90;;;;;;5100689;28;19931;-75
2024/01/12 06:00:37;;;;;;;;;;;-4.40;99.90;;;;;;5103897;28;19932;-75
2024/01/12 06:03:04;;;;;;;;;;;-4.50;99.90;;;;;;5099214;28;19927;-75
2024/01/12 06:05:31;;;;;;;;;;;-4.50;99.90;;;;;;5103442;28;19942;-74
2024/01/12 06:07:58;;;;;;;;;;;-4.50;99.90;;;;;;5102762;28;20001;-75
2024/01/12 06:10:25;;;;;;;;;;;-4.50;99.90;;;;;;5103788;28;19929;-75
2024/01/12 06:12:52;;;;;;;;;;;-4.50;99.90;;;;;;5102656;28;19936;-77
2024/01/12 06:15:19;;;;;;;;;;;-4.50;99.90;;;;;;5102514;28;19928;-75
2024/01/12 06:17:45;;;;;;;;;;;-4.50;99.90;;;;;;5104042;28;19928;-75
2024/01/12 06:20:12;;;;;;;;;;;-4.50;99.90;;;;;;5096981;28;20376;-74
2024/01/12 06:22:40;;;;;;;;;;;-4.50;99.90;;;;;;5097136;28;20381;-74
2024/01/12 06:25:07;;;;;;;;;;;-4.50;99.90;;;;;;5102016;28;19931;-74
2024/01/12 06:27:34;;;;;;;;;;;-4.50;99.90;;;;;;5101427;28;20051;-74
2024/01/12 06:30:00;;;;;;;;;;;-4.50;99.90;;;;;;5032904;28;1892439;-75
2024/01/12 06:32:27;;;;;;;;;;;-4.50;99.90;;;;;;5100528;28;19935;-75
2024/01/12 06:34:53;;;;;;;;;;;-4.50;99.90;;;;;;5103525;28;19928;-75
2024/01/12 06:37:20;;;;;;;;;;;-4.50;99.90;;;;;;5103401;28;19932;-74
2024/01/12 06:39:49;;;;;;;;;;;-4.60;99.90;;;;;;5107669;28;19938;-77
2024/01/12 06:42:16;;;;;;;;;;;-4.60;99.90;;;;;;5108866;28;19971;-76
2024/01/12 06:44:42;;;;;;;;;;;-4.60;99.90;;;;;;5090282;28;19923;-76
2024/01/12 06:47:09;;;;;;;;;;;-4.60;99.90;;;;;;5108051;28;19928;-76
2024/01/12 06:49:36;;;;;;;;;;;-4.60;99.90;;;;;;5091653;27;19928;-76
2024/01/12 06:52:03;;;;;;;;;;;-4.60;99.90;;;;;;5107431;27;19928;-76
2024/01/12 06:54:29;;;;;;;;;;;-4.60;99.90;;;;;;5107316;28;19927;-76
2024/01/12 06:56:59;;;;;;;;;;;-4.60;99.90;;;;;;5103440;28;19932;-76
2024/01/12 06:59:25;;;;;;;;;;;-4.60;99.90;;;;;;5106868;28;20377;-76
2024/01/12 07:01:52;;;;;;;;;;;-4.60;99.90;;;;;;5105998;28;20400;-75
2024/01/12 07:04:19;;;;;;;;;;;-4.60;99.90;;;;;;5107513;28;19924;-77
2024/01/12 07:06:46;;;;;;;;;;;-4.60;99.90;;;;;;5107086;28;20031;-76
2024/01/12 07:09:13;;;;;;;;;;;-4.60;99.90;;;;;;5107914;28;20638;-76
2024/01/12 07:11:40;;;;;;;;;;;-4.60;99.90;;;;;;5094134;28;19973;-77
2024/01/12 07:14:08;;;;;;;;;;;-4.60;99.90;;;;;;5109803;27;20333;-76
2024/01/12 07:16:35;;;;;;;;;;;-4.60;99.90;;;;;;5105353;28;19927;-76
2024/01/12 07:19:01;;;;;;;;;;;-4.60;99.90;;;;;;5110054;27;19924;-76
2024/01/12 07:21:28;;;;;;;;;;;-4.60;99.90;;;;;;5105349;27;20392;-77
2024/01/12 07:23:55;;;;;;;;;;;-4.60;99.90;;;;;;5109663;28;19949;-77
2024/01/12 07:26:21;;;;;;;;;;;-4.70;99.90;;;;;;5086608;28;20446;-76
2024/01/12 07:28:48;;;;;;;;;;;-4.70;99.90;;;;;;5108083;28;19935;-77
2024/01/12 07:31:16;;;;;;;;;;;-4.70;99.90;;;;;;5105369;27;19980;-76
2024/01/12 07:33:42;;;;;;;;;;;-4.70;99.90;;;;;;5105428;28;20366;-76
2024/01/12 07:36:09;;;;;;;;;;;-4.70;99.90;;;;;;5102369;28;19959;-77
2024/01/12 07:38:36;;;;;;;;;;;-4.70;99.90;;;;;;5110679;27;20636;-77
2024/01/12 07:41:02;;;;;;;;;;;-4.70;99.90;;;;;;5107046;28;19935;-77
2024/01/12 07:43:30;;;;;;;;;;;-4.70;99.90;;;;;;5104883;28;19924;-77
2024/01/12 07:45:57;;;;;;;;;;;-4.70;99.90;;;;;;5102821;28;20613;-76
2024/01/12 07:48:24;;;;;;;;;;;-4.70;99.90;;;;;;5087780;28;19932;-77
2024/01/12 07:50:51;;;;;;;;;;;-4.70;99.90;;;;;;5103983;27;19938;-76
2024/01/12 07:53:18;;;;;;;;;;;-4.70;99.90;;;;;;5102441;28;19939;-77
2024/01/12 07:55:44;;;;;;;;;;;-4.70;99.90;;;;;;5104759;28;20010;-77
2024/01/12 07:58:11;;;;;;;;;;;-4.70;99.90;;;;;;5104132;28;20570;-75
2024/01/12 08:00:38;;;;;;;;;;;-4.70;99.90;;;;;;5106820;28;20456;-76
2024/01/12 08:03:04;;;;;;;;;;;-4.80;99.90;;;;;;5105212;28;19935;-77
2024/01/12 08:05:32;;;;;;;;;;;-4.80;99.90;;;;;;5101783;28;19932;-78
2024/01/12 08:07:59;;;;;;;;;;;-4.80;99.90;;;;;;5099569;28;19935;-76
2024/01/12 08:10:26;;;;;;;;;;;-4.80;99.90;;;;;;5107072;28;19924;-76
2024/01/12 08:12:52;;;;;;;;;;;-4.80;99.90;;;;;;5102493;28;19932;-77
2024/01/12 08:15:19;;;;;;;;;;;-4.80;99.90;;;;;;5103495;27;19982;-78
2024/01/12 08:17:46;;;;;;;;;;;-4.70;99.90;;;;;;5109111;27;19947;-77
2024/01/12 08:20:13;;;;;;;;;;;-4.80;99.90;;;;;;5104137;28;19939;-77
2024/01/12 08:22:41;;;;;;;;;;;-4.80;99.90;;;;;;5105882;28;19978;-78
2024/01/12 08:25:08;;;;;;;;;;;-4.80;99.90;;;;;;5107291;28;20290;-78
2024/01/12 08:27:35;;;;;;;;;;;-4.80;99.90;;;;;;5105774;28;19928;-78
2024/01/12 08:30:01;;;;;;;;;;;-4.80;99.90;;;;;;5105726;28;20024;-76
2024/01/12 08:32:28;;;;;;;;;;;-4.80;99.90;;;;;;5104003;28;20200;-78
2024/01/12 08:34:54;;;;;;;;;;;-4.80;99.90;;;;;;5106830;28;19957;-77
2024/01/12 08:37:21;;;;;;;;;;;-4.80;99.90;;;;;;5104911;28;19928;-77
2024/01/12 08:39:49;;;;;;;;;;;-4.80;99.90;;;;;;5102844;28;20303;-77
2024/01/12 08:42:16;;;;;;;;;;;-4.80;99.90;;;;;;5109202;28;19935;-77
2024/01/12 08:44:42;;;;;;;;;;;-4.80;99.90;;;;;;5108478;28;19993;-76
2024/01/12 08:47:09;;;;;;;;;;;-4.80;99.90;;;;;;5112193;28;19993;-77
2024/01/12 08:49:36;;;;;;;;;;;-4.80;99.90;;;;;;5105897;28;20447;-76
2024/01/12 08:52:03;;;;;;;;;;;-4.80;99.90;;;;;;5108668;28;19943;-77
2024/01/12 08:54:29;;;;;;;;;;;-4.80;99.90;;;;;;5105492;28;19939;-78
2024/01/12 08:56:57;;;;;;;;;;;-4.80;99.90;;;;;;5108535;28;19931;-77
2024/01/12 08:59:25;;;;;;;;;;;-4.80;99.90;;;;;;5109453;28;20026;-77
2024/01/12 09:01:52;;;;;;;;;;;-4.80;99.90;;;;;;5109551;28;19927;-77
2024/01/12 09:04:18;;;;;;;;;;;-4.80;99.90;;;;;;5109706;28;19927;-77
2024/01/12 09:06:45;;;;;;;;;;;-4.80;99.90;;;;;;5086250;28;19939;-78
2024/01/12 09:09:12;;;;;;;;;;;-4.80;99.90;;;;;;5109683;28;19923;-77
2024/01/12 09:11:39;;;;;;;;;;;-4.80;99.90;;;;;;5111022;28;20258;-77
2024/01/12 09:14:09;;;;;;;;;;;-4.80;99.90;;;;;;5112394;28;19928;-77
2024/01/12 09:16:36;;;;;;;;;;;-4.80;99.90;;;;;;5090275;28;20356;-78
2024/01/12 09:19:03;;;;;;;;;;;-4.80;99.90;;;;;;5113414;28;19927;-77
2024/01/12 09:21:30;;;;;;;;;;;-4.80;99.90;;;;;;5109741;28;19927;-77
2024/01/12 09:23:57;;;;;;;;;;;-4.80;99.90;;;;;;5107695;28;19944;-77
2024/01/12 09:26:23;;;;;;;;;;;-4.80;99.90;;;;;;5111428;28;19936;-78
2024/01/12 09:28:50;;;;;;;;;;;-4.80;99.90;;;;;;5113064;28;19931;-78
2024/01/12 09:31:18;;;;;;;;;;;-4.80;99.90;;;;;;5111224;28;19927;-78
2024/01/12 09:33:45;;;;;;;;;;;-4.80;99.90;;;;;;5109061;28;19993;-77
2024/01/12 09:36:11;;;;;;;;;;;-4.80;99.90;;;;;;5107866;28;19967;-77
2024/01/12 09:38:38;;;;;;;;;;;-4.80;99.90;;;;;;5111689;28;19928;-78
2024/01/12 09:41:08;;;;;;;;;;;-4.70;99.90;;;;;;5092376;28;19928;-76
2024/01/12 09:43:36;;;;;;;;;;;-4.70;99.90;;;;;;5111086;28;19928;-76
2024/01/12 09:46:06;;;;;;;;;;;-4.70;99.90;;;;;;5109259;28;19938;-78
2024/01/12 09:48:35;;;;;;;;;;;-4.70;99.90;;;;;;5106437;28;20711;-78
2024/01/12 09:51:02;;;;;;;;;;;-4.70;99.90;;;;;;5112702;28;19943;-78
2024/01/12 09:53:29;;;;;;;;;;;-4.70;99.90;;;;;;5111065;28;19935;-78
2024/01/12 09:55:55;;;;;;;;;;;-4.70;99.90;;;;;;5093625;28;19924;-78
2024/01/12 09:58:22;;;;;;;;;;;-4.70;99.90;;;;;;5111246;28;20415;-78
2024/01/12 10:00:51;;;;;;;;;;;-4.70;99.90;;;;;;5115855;27;20016;-78
2024/01/12 10:03:18;;;;;;;;;;;-4.70;99.90;;;;;;5114566;28;19935;-78
2024/01/12 10:05:46;;;;;;;;;;;-4.70;99.90;;;;;;5115400;27;19927;-78
2024/01/12 10:08:13;;;;;;;;;;;-4.70;99.90;;;;;;5114982;28;19931;-79
2024/01/12 10:10:41;;;;;;;;;;;-4.60;99.90;;;;;;5094601;28;19958;-78
2024/01/12 10:13:08;;;;;;;;;;;-4.60;99.90;;;;;;5112366;28;19959;-77
2024/01/12 10:15:39;;;;;;;;;;;-4.60;99.90;;;;;;5112594;27;19939;-78
2024/01/12 10:18:06;;;;;;;;;;;-4.60;99.90;;;;;;5110289;28;19934;-78
2024/01/12 10:20:35;;;;;;;;;;;-4.50;99.90;;;;;;5110958;28;20210;-78
2024/01/12 10:23:04;;;;;;;;;;;-4.50;99.90;;;;;;5110535;27;19959;-77
2024/01/12 10:25:30;;;;;;;;;;;-4.50;99.90;;;;;;5111121;27;20001;-78
2024/01/12 10:27:57;;;;;;;;;;;-4.50;99.90;;;;;;5108755;28;19961;-79
2024/01/12 10:30:24;;;;;;;;;;;-4.40;99.90;;;;;;5089610;28;19995;-78
2024/01/12 10:32:52;;;;;;;;;;;-4.50;99.90;;;;;;5111320;28;20004;-78
2024/01/12 10:35:20;;;;;;;;;;;-4.40;99.90;;;;;;5108740;28;19970;-78
2024/01/12 10:37:47;;;;;;;;;;;-4.40;99.90;;;;;;5109618;27;20008;-78
2024/01/12 10:40:16;;;;;;;;;;;-4.40;99.90;;;;;;5106709;28;19928;-77
2024/01/12 10:42:48;;;;;;;;;;;-4.30;99.90;;;;;;5106299;28;20377;-78
2024/01/12 10:45:18;;;;;;;;;;;-4.30;99.90;;;;;;5108170;27;19935;-78
2024/01/12 10:47:48;;;;;;;;;;;-4.30;99.90;;;;;;5106000;28;19962;-77
2024/01/12 10:50:16;;;;;;;;;;;-4.30;99.90;;;;;;5106919;27;19938;-78
2024/01/12 10:52:47;;;;;;;;;;;-4.20;99.90;;;;;;5105648;28;19978;-77
2024/01/12 10:55:16;;;;;;;;;;;-4.20;99.90;;;;;;5105330;28;19935;-77
2024/01/12 10:57:43;;;;;;;;;;;-4.20;99.90;;;;;;5104520;28;19927;-78
2024/01/12 11:00:11;;;;;;;;;;;-4.10;99.90;;;;;;5107156;28;20442;-77
2024/01/12 11:02:38;;;;;;;;;;;-4.10;99.90;;;;;;5103914;28;19985;-79
2024/01/12 11:05:07;;;;;;;;;;;-4.10;99.90;;;;;;5103678;28;20336;-77
2024/01/12 11:07:35;;;;;;;;;;;-4.10;99.90;;;;;;5101581;28;19938;-78
2024/01/12 11:10:03;;;;;;;;;;;-4.00;99.90;;;;;;5103968;28;20444;-78
2024/01/12 11:12:32;;;;;;;;;;;-3.90;99.90;;;;;;5081809;28;19927;-77
2024/01/12 11:14:58;;;;;;;;;;;-3.90;99.90;;;;;;5103604;28;19959;-77
2024/01/12 11:17:27;;;;;;;;;;;-3.90;99.90;;;;;;5102183;28;19928;-77
2024/01/12 11:20:03;;;;;;;;;;;-3.90;99.90;;;;;;5102002;28;20050;-77
2024/01/12 11:22:30;;;;;;;;;;;-3.80;99.90;;;;;;5105579;27;19946;-77
2024/01/12 11:24:58;;;;;;;;;;;-3.80;99.90;;;;;;5081952;28;20008;-78
2024/01/12 11:27:32;;;;;;;;;;;-3.80;99.90;;;;;;5099007;28;19939;-77
2024/01/12 11:29:58;;;;;;;;;;;-3.80;99.90;;;;;;5100352;28;19928;-77
2024/01/12 11:32:25;;;;;;;;;;;-3.70;99.90;;;;;;5099508;28;19932;-77
2024/01/12 11:34:52;;;;;;;;;;;-3.70;99.90;;;;;;5101270;28;19958;-77
2024/01/12 11:37:18;;;;;;;;;;;-3.70;99.90;;;;;;5096146;27;19928;-77
2024/01/12 11:39:54;;;;;;;;;;;-3.70;99.90;;;;;;5065345;28;19931;-77
2024/01/12 11:42:21;;;;;;;;;;;-3.70;99.90;;;;;;5084799;28;19928;-76
2024/01/12 11:44:49;;;;;;;;;;;-3.70;99.90;;;;;;5103449;27;19932;-78
2024/01/12 11:47:15;;;;;;;;;;;-3.60;99.90;;;;;;5097362;28;19977;-78
2024/01/12 11:49:42;;;;;;;;;;;-3.60;99.90;;;;;;5097438;27;19931;-78
2024/01/12 11:52:09;;;;;;;;;;;-3.60;99.90;;;;;;5099066;27;19927;-76
2024/01/12 11:54:36;;;;;;;;;;;-3.50;99.90;;;;;;5102308;28;19928;-76
2024/01/12 11:57:02;;;;;;;;;;;-3.50;99.90;;;;;;5105303;27;19928;-77
2024/01/12 11:59:29;;;;;;;;;;;-3.50;99.90;;;;;;5100931;27;20347;-77
2024/01/12 12:01:59;;;;;;;;;;;-3.50;99.90;;;;;;5100481;28;19928;-79
2024/01/12 12:04:26;;;;;;;;;;;-3.40;99.90;;;;;;5098996;28;19935;-78
2024/01/12 12:06:53;;;;;;;;;;;-3.40;99.90;;;;;;5102912;27;20000;-77
2024/01/12 12:09:19;;;;;;;;;;;-3.40;99.90;;;;;;5101017;28;20009;-78
2024/01/12 12:11:48;;;;;;;;;;;-3.40;99.90;;;;;;5098028;28;19927;-76
2024/01/12 12:14:15;;;;;;;;;;;-3.40;99.90;;;;;;5087428;28;19939;-77
2024/01/12 12:16:41;;;;;;;;;;;-3.40;99.90;;;;;;5085097;28;20025;-78
2024/01/12 12:19:10;;;;;;;;;;;-3.30;99.90;;;;;;5102332;28;19962;-76
2024/01/12 12:21:37;;;;;;;;;;;-3.30;99.90;;;;;;5102294;27;19958;-77
2024/01/12 12:24:08;;;;;;;;;;;-3.30;99.90;;;;;;5101633;28;20216;-76
2024/01/12 12:26:35;;;;;;;;;;;-3.20;99.90;;;;;;5084232;28;19939;-79
2024/01/12 12:29:03;;;;;;;;;;;-3.20;99.90;;;;;;5098408;28;19962;-79
2024/01/12 12:31:31;;;;;;;;;;;-3.20;99.90;;;;;;5100996;27;19969;-77
2024/01/12 12:33:58;;;;;;;;;;;-3.20;99.90;;;;;;5098590;28;19958;-77
2024/01/12 12:36:29;;;;;;;;;;;-3.20;99.90;;;;;;5097263;28;20046;-77
2024/01/12 12:38:57;;;;;;;;;;;-3.10;99.90;;;;;;5098726;28;19963;-77
2024/01/12 12:41:24;;;;;;;;;;;-3.10;99.90;;;;;;5109588;28;19928;-79
2024/01/12 12:43:51;;;;;;;;;;;-3.10;99.90;;;;;;5107212;28;19932;-79
2024/01/12 12:46:18;;;;;;;;;;;-2.90;99.90;;;;;;5098855;28;19928;-80
2024/01/12 12:48:45;;;;;;;;;;;-2.80;99.90;;;;;;5099277;28;19927;-79
2024/01/12 12:51:12;;;;;;;;;;;-2.80;99.90;;;;;;5100800;28;20066;-81
2024/01/12 12:53:40;;;;;;;;;;;-2.80;99.90;;;;;;5097365;28;19935;-80
2024/01/12 12:56:07;;;;;;;;;;;-2.70;99.90;;;;;;5080826;28;19953;-79
2024/01/12 12:58:33;;;;;;;;;;;-2.70;99.90;;;;;;5099128;28;20849;-80
2024/01/12 13:01:00;;;;;;;;;;;-2.70;99.90;;;;;;5100528;28;20649;-80
2024/01/12 13:03:27;;;;;;;;;;;-2.70;99.90;;;;;;5098299;28;20481;-81
2024/01/12 13:05:54;;;;;;;;;;;-2.70;99.90;;;;;;5081906;28;20014;-79
2024/01/12 13:08:21;;;;;;;;;;;-2.70;99.90;;;;;;5098846;28;19927;-80
2024/01/12 13:10:52;;;;;;;;;;;-2.70;99.90;;;;;;5100049;28;20066;-80
2024/01/12 13:13:19;;;;;;;;;;;-2.70;99.90;;;;;;5099344;28;20384;-80
2024/01/12 13:15:45;;;;;;;;;;;-2.60;99.90;;;;;;5098909;28;20575;-80
2024/01/12 13:18:12;;;;;;;;;;;-2.60;99.90;;;;;;5100077;28;19927;-79
2024/01/12 13:20:38;;;;;;;;;;;-2.60;99.90;;;;;;5100725;28;19928;-80
2024/01/12 13:23:05;;;;;;;;;;;-2.60;99.90;;;;;;5100642;28;19981;-78
2024/01/12 13:25:32;;;;;;;;;;;-2.60;99.90;;;;;;5095222;28;19928;-81
2024/01/12 13:28:00;;;;;;;;;;;-2.60;99.90;;;;;;5098008;28;19935;-80
2024/01/12 13:30:26;;;;;;;;;;;-2.60;99.90;;;;;;5098249;28;19927;-81
2024/01/12 13:32:53;;;;;;;;;;;-2.50;99.90;;;;;;5101673;27;19928;-79
2024/01/12 13:35:21;;;;;;;;;;;-2.50;99.90;;;;;;5084454;27;20018;-79
2024/01/12 13:37:47;;;;;;;;;;;-2.50;99.90;;;;;;5102942;28;20385;-79
2024/01/12 13:40:14;;;;;;;;;;;-2.50;99.90;;;;;;5084881;28;20294;-79
2024/01/12 13:42:41;;;;;;;;;;;-2.50;99.90;;;;;;5088333;28;19927;-79
2024/01/12 13:45:09;;;;;;;;;;;-2.50;99.90;;;;;;5101018;28;19934;-80
2024/01/12 13:47:36;;;;;;;;;;;-2.50;99.90;;;;;;5102331;28;20586;-79
2024/01/12 13:50:02;;;;;;;;;;;-2.40;99.90;;;;;;5103354;28;19928;-80
2024/01/12 13:52:30;;;;;;;;;;;-2.40;99.90;;;;;;5099086;28;20393;-79
2024/01/12 13:54:56;;;;;;;;;;;-2.40;99.90;;;;;;5104401;27;20003;-80
2024/01/12 13:57:23;;;;;;;;;;;-2.40;99.90;;;;;;5084883;28;20350;-78
2024/01/12 13:59:50;;;;;;;;;;;-2.40;99.90;;;;;;5100232;28;19928;-80
2024/01/12 14:02:18;;;;;;;;;;;-2.40;99.90;;;;;;5086278;28;19931;-79
2024/01/12 14:04:45;;;;;;;;;;;-2.40;99.90;;;;;;5102800;28;19932;-81
2024/01/12 14:07:13;;;;;;;;;;;-2.30;99.90;;;;;;5066138;28;19928;-79
2024/01/12 14:09:39;;;;;;;;;;;-2.30;99.90;;;;;;5103373;27;19949;-79
2024/01/12 14:12:07;;;;;;;;;;;-2.30;99.90;;;;;;5102654;27;19951;-81
2024/01/12 14:14:40;;;;;;;;;;;-2.30;99.90;;;;;;5099324;28;19935;-78